sensor_id;sensor_type;location;lat;lon;timestamp;temperature;humidity
16066;DHT22;8137;48.952;8.970;2023-04-04T00:00:12;0.80;99.90
16066;DHT22;8137;48.952;8.970;2023-04-04T00:02:37;0.80;99.90
16066;DHT22;8137;48.952;8.970;2023-04-04T00:05:04;0.80;99.90
16066;DHT22;8137;48.952;8.970;2023-04-04T00:07:30;0.70;99.90
16066;DHT22;8137;48.952;8.970;2023-04-04T00:09:56;0.80;99.90
16066;DHT22;8137;48.952;8.970;2023-04-04T00:12:21;0.70;99.90
16066;DHT22;8137;48.952;8.970;2023-04-04T00:14:49;0.60;99.90
16066;DHT22;8137;48.952;8.970;2023-04-04T00:17:15;0.60;99.90
16066;DHT22;8137;48.952;8.970;2023-04-04T00:19:40;0.60;99.90
16066;DHT22;8137;48.952;8.970;2023-04-04T00:22:06;0.60;99.90
16066;DHT22;8137;48.952;8.970;2023-04-04T00:24:32;0.50;99.90
16066;DHT22;8137;48.952;8.970;2023-04-04T00:26:59;0.50;99.90
16066;DHT22;8137;48.952;8.970;2023-04-04T00:29:24;0.50;99.90
16066;DHT22;8137;48.952;8.970;2023-04-04T00:31:50;0.50;99.90
16066;DHT22;8137;48.952;8.970;2023-04-04T00:34:15;0.50;99.90
16066;DHT22;8137;48.952;8.970;2023-04-04T00:36:41;0.50;99.90
16066;DHT22;8137;48.952;8.970;2023-04-04T00:39:07;0.60;99.90
16066;DHT22;8137;48.952;8.970;2023-04-04T00:41:33;0.50;99.90
16066;DHT22;8137;48.952;8.970;2023-04-04T00:43:59;0.50;99.90
16066;DHT22;8137;48.952;8.970;2023-04-04T00:46:26;0.50;99.90
16066;DHT22;8137;48.952;8.970;2023-04-04T00:48:53;0.40;99.90
16066;DHT22;8137;48.952;8.970;2023-04-04T00:51:19;0.40;99.90
16066;DHT22;8137;48.952;8.970;2023-04-04T00:53:46;0.40;99.90
16066;DHT22;8137;48.952;8.970;2023-04-04T00:56:12;0.30;99.90
16066;DHT22;8137;48.952;8.970;2023-04-04T00:58:38;0.30;99.90
16066;DHT22;8137;48.952;8.970;2023-04-04T01:01:04;0.20;99.90
16066;DHT22;8137;48.952;8.970;2023-04-04T01:03:32;0.20;99.90
16066;DHT22;8137;48.952;8.970;2023-04-04T01:05:58;0.20;99.90
16066;DHT22;8137;48.952;8.970;2023-04-04T01:08:25;0.10;99.90
16066;DHT22;8137;48.952;8.970;2023-04-04T01:10:52;0.00;99.90
16066;DHT22;8137;48.952;8.970;2023-04-04T01:13:18;0.00;99.90
16066;DHT22;8137;48.952;8.970;2023-04-04T01:15:44;0.00;99.90
16066;DHT22;8137;48.952;8.970;2023-04-04T01:18:11;-0.10;99.90
16066;DHT22;8137;48.952;8.970;2023-04-04T01:20:43;0.00;99.90
16066;DHT22;8137;48.952;8.970;2023-04-04T01:23:11;0.00;99.90
16066;DHT22;8137;48.952;8.970;2023-04-04T01:25:37;0.00;99.90
16066;DHT22;8137;48.952;8.970;2023-04-04T01:28:03;0.00;99.90
16066;DHT22;8137;48.952;8.970;2023-04-04T01:30:32;0.00;99.90
16066;DHT22;8137;48.952;8.970;2023-04-04T01:33:05;-0.10;99.90
16066;DHT22;8137;48.952;8.970;2023-04-04T01:35:43;-0.20;99.90
16066;DHT22;8137;48.952;8.970;2023-04-04T01:41:00;-0.40;99.90
16066;DHT22;8137;48.952;8.970;2023-04-04T01:43:29;-0.40;99.90
16066;DHT22;8137;48.952;8.970;2023-04-04T01:45:54;-0.40;99.90
16066;DHT22;8137;48.952;8.970;2023-04-04T01:48:20;-0.30;99.90
16066;DHT22;8137;48.952;8.970;2023-04-04T01:50:46;-0.40;99.90
16066;DHT22;8137;48.952;8.970;2023-04-04T01:53:12;-0.30;99.90
16066;DHT22;8137;48.952;8.970;2023-04-04T01:55:37;-0.30;99.90
16066;DHT22;8137;48.952;8.970;2023-04-04T01:58:03;-0.30;99.90
16066;DHT22;8137;48.952;8.970;2023-04-04T02:00:28;-0.30;99.90
16066;DHT22;8137;48.952;8.970;2023-04-04T02:02:54;-0.40;99.90
16066;DHT22;8137;48.952;8.970;2023-04-04T02:05:20;-0.40;99.90
16066;DHT22;8137;48.952;8.970;2023-04-04T02:07:48;-0.30;99.90
16066;DHT22;8137;48.952;8.970;2023-04-04T02:10:15;-0.30;99.90
16066;DHT22;8137;48.952;8.970;2023-04-04T02:12:40;-0.20;99.90
16066;DHT22;8137;48.952;8.970;2023-04-04T02:15:06;-0.20;99.90
16066;DHT22;8137;48.952;8.970;2023-04-04T02:17:32;-0.20;99.90
16066;DHT22;8137;48.952;8.970;2023-04-04T02:19:59;-0.20;99.90
16066;DHT22;8137;48.952;8.970;2023-04-04T02:22:24;-0.20;99.90
16066;DHT22;8137;48.952;8.970;2023-04-04T02:24:50;-0.10;99.90
16066;DHT22;8137;48.952;8.970;2023-04-04T02:27:15;-0.20;99.90
16066;DHT22;8137;48.952;8.970;2023-04-04T02:29:41;-0.20;99.90
16066;DHT22;8137;48.952;8.970;2023-04-04T02:32:07;-0.30;99.90
16066;DHT22;8137;48.952;8.970;2023-04-04T02:34:32;-0.40;99.90
16066;DHT22;8137;48.952;8.970;2023-04-04T02:36:58;-0.40;99.90
16066;DHT22;8137;48.952;8.970;2023-04-04T02:39:23;-0.60;99.90
16066;DHT22;8137;48.952;8.970;2023-04-04T02:41:49;-0.70;99.90
16066;DHT22;8137;48.952;8.970;2023-04-04T02:44:15;-0.80;99.90
16066;DHT22;8137;48.952;8.970;2023-04-04T02:46:41;-0.90;99.90
16066;DHT22;8137;48.952;8.970;2023-04-04T02:49:06;-0.90;99.90
16066;DHT22;8137;48.952;8.970;2023-04-04T02:51:32;-0.90;99.90
16066;DHT22;8137;48.952;8.970;2023-04-04T02:53:58;-0.90;99.90
16066;DHT22;8137;48.952;8.970;2023-04-04T02:56:23;-0.90;99.90
16066;DHT22;8137;48.952;8.970;2023-04-04T02:58:49;-0.90;99.90
16066;DHT22;8137;48.952;8.970;2023-04-04T03:01:15;-0.90;99.90
16066;DHT22;8137;48.952;8.970;2023-04-04T03:03:40;-0.90;99.90
16066;DHT22;8137;48.952;8.970;2023-04-04T03:06:06;-0.90;99.90
16066;DHT22;8137;48.952;8.970;2023-04-04T03:08:32;-1.00;99.90
16066;DHT22;8137;48.952;8.970;2023-04-04T03:10:59;-1.00;99.90
16066;DHT22;8137;48.952;8.970;2023-04-04T03:13:24;-1.10;99.90
16066;DHT22;8137;48.952;8.970;2023-04-04T03:15:50;-1.10;99.90
16066;DHT22;8137;48.952;8.970;2023-04-04T03:18:22;-1.10;99.90
16066;DHT22;8137;48.952;8.970;2023-04-04T03:20:47;-1.10;99.90
16066;DHT22;8137;48.952;8.970;2023-04-04T03:23:13;-1.10;99.90
16066;DHT22;8137;48.952;8.970;2023-04-04T03:25:38;-1.10;99.90
16066;DHT22;8137;48.952;8.970;2023-04-04T03:28:08;-1.10;99.90
16066;DHT22;8137;48.952;8.970;2023-04-04T03:30:34;-1.20;99.90
16066;DHT22;8137;48.952;8.970;2023-04-04T03:33:03;-1.20;99.90
16066;DHT22;8137;48.952;8.970;2023-04-04T03:35:32;-1.20;99.90
16066;DHT22;8137;48.952;8.970;2023-04-04T03:38:00;-1.20;99.90
16066;DHT22;8137;48.952;8.970;2023-04-04T03:40:28;-1.30;99.90
16066;DHT22;8137;48.952;8.970;2023-04-04T03:42:53;-1.30;99.90
16066;DHT22;8137;48.952;8.970;2023-04-04T03:45:19;-1.30;99.90
16066;DHT22;8137;48.952;8.970;2023-04-04T03:47:44;-1.40;99.90
16066;DHT22;8137;48.952;8.970;2023-04-04T03:50:10;-1.40;99.90
16066;DHT22;8137;48.952;8.970;2023-04-04T03:52:38;-1.50;99.90
16066;DHT22;8137;48.952;8.970;2023-04-04T03:55:05;-1.50;99.90
16066;DHT22;8137;48.952;8.970;2023-04-04T03:57:32;-1.50;99.90
16066;DHT22;8137;48.952;8.970;2023-04-04T03:59:57;-1.50;99.90
16066;DHT22;8137;48.952;8.970;2023-04-04T04:02:23;-1.50;99.90
16066;DHT22;8137;48.952;8.970;2023-04-04T04:04:48;-1.50;99.90
16066;DHT22;8137;48.952;8.970;2023-04-04T04:07:14;-1.50;99.90
16066;DHT22;8137;48.952;8.970;2023-04-04T04:09:40;-1.50;99.90
16066;DHT22;8137;48.952;8.970;2023-04-04T04:12:06;-1.50;99.90
16066;DHT22;8137;48.952;8.970;2023-04-04T04:14:32;-1.60;99.90
16066;DHT22;8137;48.952;8.970;2023-04-04T04:16:58;-1.60;99.90
16066;DHT22;8137;48.952;8.970;2023-04-04T04:19:23;-1.60;99.90
16066;DHT22;8137;48.952;8.970;2023-04-04T04:21:49;-1.70;99.90
16066;DHT22;8137;48.952;8.970;2023-04-04T04:24:15;-1.60;99.90
16066;DHT22;8137;48.952;8.970;2023-04-04T04:26:41;-1.70;99.90
16066;DHT22;8137;48.952;8.970;2023-04-04T04:29:06;-1.70;99.90
16066;DHT22;8137;48.952;8.970;2023-04-04T04:31:32;-1.70;99.90
16066;DHT22;8137;48.952;8.970;2023-04-04T04:33:58;-1.70;99.90
16066;DHT22;8137;48.952;8.970;2023-04-04T04:36:23;-1.80;99.90
16066;DHT22;8137;48.952;8.970;2023-04-04T04:38:49;-1.80;99.90
16066;DHT22;8137;48.952;8.970;2023-04-04T04:41:15;-1.90;99.90
16066;DHT22;8137;48.952;8.970;2023-04-04T04:43:41;-1.80;99.90
16066;DHT22;8137;48.952;8.970;2023-04-04T04:46:06;-1.90;99.90
16066;DHT22;8137;48.952;8.970;2023-04-04T04:48:33;-1.90;99.90
16066;DHT22;8137;48.952;8.970;2023-04-04T04:50:58;-1.90;99.90
16066;DHT22;8137;48.952;8.970;2023-04-04T04:53:24;-1.90;99.90
16066;DHT22;8137;48.952;8.970;2023-04-04T04:55:50;-1.90;99.90
16066;DHT22;8137;48.952;8.970;2023-04-04T04:58:17;-1.90;99.90
16066;DHT22;8137;48.952;8.970;2023-04-04T05:00:45;-1.80;99.90
16066;DHT22;8137;48.952;8.970;2023-04-04T05:03:11;-1.30;99.90
16066;DHT22;8137;48.952;8.970;2023-04-04T05:05:36;-0.90;99.90
16066;DHT22;8137;48.952;8.970;2023-04-04T05:08:02;-0.70;99.90
16066;DHT22;8137;48.952;8.970;2023-04-04T05:10:29;-0.40;99.90
16066;DHT22;8137;48.952;8.970;2023-04-04T05:12:55;-0.20;99.90
16066;DHT22;8137;48.952;8.970;2023-04-04T05:15:21;-0.20;99.90
16066;DHT22;8137;48.952;8.970;2023-04-04T05:17:46;-0.20;99.90
16066;DHT22;8137;48.952;8.970;2023-04-04T05:20:13;-0.40;99.90
16066;DHT22;8137;48.952;8.970;2023-04-04T05:22:44;-0.60;99.90
16066;DHT22;8137;48.952;8.970;2023-04-04T05:25:10;-0.70;99.90
16066;DHT22;8137;48.952;8.970;2023-04-04T05:27:37;-0.90;99.90
16066;DHT22;8137;48.952;8.970;2023-04-04T05:30:02;-1.00;99.90
16066;DHT22;8137;48.952;8.970;2023-04-04T05:32:28;-1.00;99.90
16066;DHT22;8137;48.952;8.970;2023-04-04T05:34:54;-1.00;99.90
16066;DHT22;8137;48.952;8.970;2023-04-04T05:37:19;-1.00;99.90
16066;DHT22;8137;48.952;8.970;2023-04-04T05:39:45;-1.00;99.90
16066;DHT22;8137;48.952;8.970;2023-04-04T05:42:11;-1.00;99.90
16066;DHT22;8137;48.952;8.970;2023-04-04T05:44:37;-1.00;99.90
16066;DHT22;8137;48.952;8.970;2023-04-04T05:47:02;-1.00;99.90
16066;DHT22;8137;48.952;8.970;2023-04-04T05:49:28;-0.90;99.90
16066;DHT22;8137;48.952;8.970;2023-04-04T05:51:53;-0.90;99.90
16066;DHT22;8137;48.952;8.970;2023-04-04T05:54:23;-0.90;99.90
16066;DHT22;8137;48.952;8.970;2023-04-04T05:56:48;-0.70;99.90
16066;DHT22;8137;48.952;8.970;2023-04-04T05:59:14;-0.70;99.90
16066;DHT22;8137;48.952;8.970;2023-04-04T06:01:40;-0.60;99.90
16066;DHT22;8137;48.952;8.970;2023-04-04T06:04:06;-0.50;99.90
16066;DHT22;8137;48.952;8.970;2023-04-04T06:06:33;-0.40;99.90
16066;DHT22;8137;48.952;8.970;2023-04-04T06:08:58;0.10;99.90
16066;DHT22;8137;48.952;8.970;2023-04-04T06:11:24;0.40;99.90
16066;DHT22;8137;48.952;8.970;2023-04-04T06:13:50;0.60;99.90
16066;DHT22;8137;48.952;8.970;2023-04-04T06:16:17;0.60;99.90
16066;DHT22;8137;48.952;8.970;2023-04-04T06:18:42;0.60;99.90
16066;DHT22;8137;48.952;8.970;2023-04-04T06:21:08;0.60;99.90
16066;DHT22;8137;48.952;8.970;2023-04-04T06:23:33;0.60;99.90
16066;DHT22;8137;48.952;8.970;2023-04-04T06:26:01;0.70;99.90
16066;DHT22;8137;48.952;8.970;2023-04-04T06:28:27;0.70;99.90
16066;DHT22;8137;48.952;8.970;2023-04-04T06:30:53;0.80;99.90
16066;DHT22;8137;48.952;8.970;2023-04-04T06:33:18;0.90;99.90
16066;DHT22;8137;48.952;8.970;2023-04-04T06:35:44;0.90;99.90
16066;DHT22;8137;48.952;8.970;2023-04-04T06:38:10;1.00;99.90
16066;DHT22;8137;48.952;8.970;2023-04-04T06:40:35;1.10;99.90
16066;DHT22;8137;48.952;8.970;2023-04-04T06:43:01;1.20;99.90
16066;DHT22;8137;48.952;8.970;2023-04-04T06:45:27;1.20;99.90
16066;DHT22;8137;48.952;8.970;2023-04-04T06:47:54;1.30;99.90
16066;DHT22;8137;48.952;8.970;2023-04-04T06:50:22;1.50;99.90
16066;DHT22;8137;48.952;8.970;2023-04-04T06:52:48;1.60;99.90
16066;DHT22;8137;48.952;8.970;2023-04-04T06:55:15;1.60;99.90
16066;DHT22;8137;48.952;8.970;2023-04-04T06:57:41;1.80;99.90
16066;DHT22;8137;48.952;8.970;2023-04-04T07:00:07;1.90;99.90
16066;DHT22;8137;48.952;8.970;2023-04-04T07:02:34;2.10;99.90
16066;DHT22;8137;48.952;8.970;2023-04-04T07:05:01;2.20;99.90
16066;DHT22;8137;48.952;8.970;2023-04-04T07:07:27;2.40;99.90
16066;DHT22;8137;48.952;8.970;2023-04-04T07:09:54;2.50;99.90
16066;DHT22;8137;48.952;8.970;2023-04-04T07:12:20;2.50;99.90
16066;DHT22;8137;48.952;8.970;2023-04-04T07:14:46;2.50;99.90
16066;DHT22;8137;48.952;8.970;2023-04-04T07:17:11;2.60;99.90
16066;DHT22;8137;48.952;8.970;2023-04-04T07:19:37;2.70;99.90
16066;DHT22;8137;48.952;8.970;2023-04-04T07:22:03;2.80;99.90
16066;DHT22;8137;48.952;8.970;2023-04-04T07:24:28;2.90;99.90
16066;DHT22;8137;48.952;8.970;2023-04-04T07:26:54;3.00;99.90
16066;DHT22;8137;48.952;8.970;2023-04-04T07:29:19;3.10;99.90
16066;DHT22;8137;48.952;8.970;2023-04-04T07:31:46;3.20;99.90
16066;DHT22;8137;48.952;8.970;2023-04-04T07:34:12;3.30;99.90
16066;DHT22;8137;48.952;8.970;2023-04-04T07:36:38;3.40;99.90
16066;DHT22;8137;48.952;8.970;2023-04-04T07:39:03;3.40;99.90
16066;DHT22;8137;48.952;8.970;2023-04-04T07:41:29;3.30;99.90
16066;DHT22;8137;48.952;8.970;2023-04-04T07:43:55;3.30;99.90
16066;DHT22;8137;48.952;8.970;2023-04-04T07:46:20;3.40;99.90
16066;DHT22;8137;48.952;8.970;2023-04-04T07:48:46;3.50;99.90
16066;DHT22;8137;48.952;8.970;2023-04-04T07:51:12;3.70;99.90
16066;DHT22;8137;48.952;8.970;2023-04-04T07:53:38;3.70;99.90
16066;DHT22;8137;48.952;8.970;2023-04-04T07:56:03;3.80;99.90
16066;DHT22;8137;48.952;8.970;2023-04-04T07:58:35;3.90;99.90
16066;DHT22;8137;48.952;8.970;2023-04-04T08:01:01;4.10;99.90
16066;DHT22;8137;48.952;8.970;2023-04-04T08:03:28;4.30;99.90
16066;DHT22;8137;48.952;8.970;2023-04-04T08:05:53;4.30;99.90
16066;DHT22;8137;48.952;8.970;2023-04-04T08:08:19;4.40;99.90
16066;DHT22;8137;48.952;8.970;2023-04-04T08:10:45;4.50;99.90
16066;DHT22;8137;48.952;8.970;2023-04-04T08:13:11;4.30;99.90
16066;DHT22;8137;48.952;8.970;2023-04-04T08:15:37;4.30;99.90
16066;DHT22;8137;48.952;8.970;2023-04-04T08:18:03;4.50;99.90
16066;DHT22;8137;48.952;8.970;2023-04-04T08:20:29;4.70;99.90
16066;DHT22;8137;48.952;8.970;2023-04-04T08:22:55;4.80;99.90
16066;DHT22;8137;48.952;8.970;2023-04-04T08:25:21;4.90;99.90
16066;DHT22;8137;48.952;8.970;2023-04-04T08:27:47;5.00;98.90
16066;DHT22;8137;48.952;8.970;2023-04-04T08:30:13;5.10;98.90
16066;DHT22;8137;48.952;8.970;2023-04-04T08:32:40;5.30;98.00
16066;DHT22;8137;48.952;8.970;2023-04-04T08:35:06;5.40;96.20
16066;DHT22;8137;48.952;8.970;2023-04-04T08:37:33;5.60;96.00
16066;DHT22;8137;48.952;8.970;2023-04-04T08:40:00;5.70;94.90
16066;DHT22;8137;48.952;8.970;2023-04-04T08:42:27;5.80;95.30
16066;DHT22;8137;48.952;8.970;2023-04-04T08:44:56;5.90;92.90
16066;DHT22;8137;48.952;8.970;2023-04-04T08:47:23;6.00;92.80
16066;DHT22;8137;48.952;8.970;2023-04-04T08:49:50;6.00;91.60
16066;DHT22;8137;48.952;8.970;2023-04-04T08:52:17;5.90;91.30
16066;DHT22;8137;48.952;8.970;2023-04-04T08:54:46;5.80;90.30
16066;DHT22;8137;48.952;8.970;2023-04-04T08:57:12;5.80;88.40
16066;DHT22;8137;48.952;8.970;2023-04-04T08:59:38;5.80;84.00
16066;DHT22;8137;48.952;8.970;2023-04-04T09:02:14;5.90;83.00
16066;DHT22;8137;48.952;8.970;2023-04-04T09:04:42;6.00;81.40
16066;DHT22;8137;48.952;8.970;2023-04-04T09:07:08;6.20;81.20
16066;DHT22;8137;48.952;8.970;2023-04-04T09:09:35;6.30;82.90
16066;DHT22;8137;48.952;8.970;2023-04-04T09:12:03;6.50;79.70
16066;DHT22;8137;48.952;8.970;2023-04-04T09:14:30;6.60;79.20
16066;DHT22;8137;48.952;8.970;2023-04-04T09:16:57;6.70;74.40
16066;DHT22;8137;48.952;8.970;2023-04-04T09:19:23;6.40;67.70
16066;DHT22;8137;48.952;8.970;2023-04-04T09:21:49;6.10;66.80
16066;DHT22;8137;48.952;8.970;2023-04-04T09:24:15;6.30;65.10
16066;DHT22;8137;48.952;8.970;2023-04-04T09:26:51;6.40;67.70
16066;DHT22;8137;48.952;8.970;2023-04-04T09:29:20;6.60;67.90
16066;DHT22;8137;48.952;8.970;2023-04-04T09:31:46;6.70;63.00
16066;DHT22;8137;48.952;8.970;2023-04-04T09:34:18;6.40;56.90
16066;DHT22;8137;48.952;8.970;2023-04-04T09:36:45;6.30;55.60
16066;DHT22;8137;48.952;8.970;2023-04-04T09:39:10;6.30;52.70
16066;DHT22;8137;48.952;8.970;2023-04-04T09:41:37;6.40;56.60
16066;DHT22;8137;48.952;8.970;2023-04-04T09:44:04;6.80;59.30
16066;DHT22;8137;48.952;8.970;2023-04-04T09:46:32;6.70;54.40
16066;DHT22;8137;48.952;8.970;2023-04-04T09:49:00;6.60;52.80
16066;DHT22;8137;48.952;8.970;2023-04-04T09:51:33;6.70;50.90
16066;DHT22;8137;48.952;8.970;2023-04-04T09:54:00;6.80;50.60
16066;DHT22;8137;48.952;8.970;2023-04-04T09:56:26;7.20;50.20
16066;DHT22;8137;48.952;8.970;2023-04-04T09:58:52;7.00;49.70
16066;DHT22;8137;48.952;8.970;2023-04-04T10:01:19;7.00;49.80
16066;DHT22;8137;48.952;8.970;2023-04-04T10:03:53;7.20;49.90
16066;DHT22;8137;48.952;8.970;2023-04-04T10:06:20;7.40;50.10
16066;DHT22;8137;48.952;8.970;2023-04-04T10:08:46;7.40;49.10
16066;DHT22;8137;48.952;8.970;2023-04-04T10:11:12;7.50;52.20
16066;DHT22;8137;48.952;8.970;2023-04-04T10:13:39;7.70;52.10
16066;DHT22;8137;48.952;8.970;2023-04-04T10:16:06;7.90;52.40
16066;DHT22;8137;48.952;8.970;2023-04-04T10:18:35;8.00;54.00
16066;DHT22;8137;48.952;8.970;2023-04-04T10:21:02;8.10;48.40
16066;DHT22;8137;48.952;8.970;2023-04-04T10:23:29;8.00;46.50
16066;DHT22;8137;48.952;8.970;2023-04-04T10:25:56;8.10;46.10
16066;DHT22;8137;48.952;8.970;2023-04-04T10:28:23;8.30;48.40
16066;DHT22;8137;48.952;8.970;2023-04-04T10:34:14;8.30;41.50
16066;DHT22;8137;48.952;8.970;2023-04-04T10:37:11;8.40;40.00
16066;DHT22;8137;48.952;8.970;2023-04-04T10:39:44;8.60;41.00
16066;DHT22;8137;48.952;8.970;2023-04-04T10:42:14;8.70;38.60
16066;DHT22;8137;48.952;8.970;2023-04-04T10:44:40;8.60;39.70
16066;DHT22;8137;48.952;8.970;2023-04-04T10:47:19;8.60;41.00
16066;DHT22;8137;48.952;8.970;2023-04-04T10:49:47;8.50;40.40
16066;DHT22;8137;48.952;8.970;2023-04-04T10:52:17;8.40;34.80
16066;DHT22;8137;48.952;8.970;2023-04-04T10:54:44;8.30;36.60
16066;DHT22;8137;48.952;8.970;2023-04-04T10:57:11;8.50;36.10
16066;DHT22;8137;48.952;8.970;2023-04-04T10:59:56;8.70;38.90
16066;DHT22;8137;48.952;8.970;2023-04-04T11:02:45;8.60;36.20
16066;DHT22;8137;48.952;8.970;2023-04-04T11:05:33;8.50;34.00
16066;DHT22;8137;48.952;8.970;2023-04-04T11:08:05;8.40;35.80
16066;DHT22;8137;48.952;8.970;2023-04-04T11:10:36;8.50;34.00
16066;DHT22;8137;48.952;8.970;2023-04-04T11:13:11;8.50;35.30
16066;DHT22;8137;48.952;8.970;2023-04-04T11:15:57;8.40;38.10
16066;DHT22;8137;48.952;8.970;2023-04-04T11:21:19;8.60;34.10
16066;DHT22;8137;48.952;8.970;2023-04-04T11:26:37;8.80;32.70
16066;DHT22;8137;48.952;8.970;2023-04-04T11:29:04;8.80;33.80
16066;DHT22;8137;48.952;8.970;2023-04-04T11:31:42;8.60;33.00
16066;DHT22;8137;48.952;8.970;2023-04-04T11:34:14;8.50;33.70
16066;DHT22;8137;48.952;8.970;2023-04-04T11:39:27;8.70;30.30
16066;DHT22;8137;48.952;8.970;2023-04-04T11:42:12;8.50;29.30
16066;DHT22;8137;48.952;8.970;2023-04-04T11:44:42;8.20;29.50
16066;DHT22;8137;48.952;8.970;2023-04-04T11:47:28;8.00;34.60
16066;DHT22;8137;48.952;8.970;2023-04-04T11:49:55;8.10;34.30
16066;DHT22;8137;48.952;8.970;2023-04-04T11:52:21;8.30;33.20
16066;DHT22;8137;48.952;8.970;2023-04-04T11:54:48;8.20;30.60
16066;DHT22;8137;48.952;8.970;2023-04-04T11:57:18;8.20;30.00
16066;DHT22;8137;48.952;8.970;2023-04-04T11:59:46;8.40;31.90
16066;DHT22;8137;48.952;8.970;2023-04-04T12:02:14;8.60;31.60
16066;DHT22;8137;48.952;8.970;2023-04-04T12:04:41;8.70;32.10
16066;DHT22;8137;48.952;8.970;2023-04-04T12:07:10;8.70;29.60
16066;DHT22;8137;48.952;8.970;2023-04-04T12:09:37;8.50;30.00
16066;DHT22;8137;48.952;8.970;2023-04-04T12:12:03;8.50;30.50
16066;DHT22;8137;48.952;8.970;2023-04-04T12:14:31;8.50;30.30
16066;DHT22;8137;48.952;8.970;2023-04-04T12:16:57;8.70;31.80
16066;DHT22;8137;48.952;8.970;2023-04-04T12:19:25;8.60;28.50
16066;DHT22;8137;48.952;8.970;2023-04-04T12:21:52;8.40;30.00
16066;DHT22;8137;48.952;8.970;2023-04-04T12:24:18;8.60;29.10
16066;DHT22;8137;48.952;8.970;2023-04-04T12:26:49;8.60;29.80
16066;DHT22;8137;48.952;8.970;2023-04-04T12:29:16;8.70;30.70
16066;DHT22;8137;48.952;8.970;2023-04-04T12:31:44;8.60;30.00
16066;DHT22;8137;48.952;8.970;2023-04-04T12:34:21;8.50;29.20
16066;DHT22;8137;48.952;8.970;2023-04-04T12:36:47;8.70;31.50
16066;DHT22;8137;48.952;8.970;2023-04-04T12:39:14;8.90;32.00
16066;DHT22;8137;48.952;8.970;2023-04-04T12:41:57;8.70;29.10
16066;DHT22;8137;48.952;8.970;2023-04-04T12:47:00;8.80;30.30
16066;DHT22;8137;48.952;8.970;2023-04-04T12:49:40;8.90;30.20
16066;DHT22;8137;48.952;8.970;2023-04-04T12:52:19;9.10;28.30
16066;DHT22;8137;48.952;8.970;2023-04-04T12:54:45;9.00;27.10
16066;DHT22;8137;48.952;8.970;2023-04-04T12:57:11;9.10;29.40
16066;DHT22;8137;48.952;8.970;2023-04-04T12:59:44;9.00;28.90
16066;DHT22;8137;48.952;8.970;2023-04-04T13:02:13;9.10;30.00
16066;DHT22;8137;48.952;8.970;2023-04-04T13:04:39;9.10;29.20
16066;DHT22;8137;48.952;8.970;2023-04-04T13:07:23;9.20;29.40
16066;DHT22;8137;48.952;8.970;2023-04-04T13:09:58;9.30;30.20
16066;DHT22;8137;48.952;8.970;2023-04-04T13:12:24;9.30;28.70
16066;DHT22;8137;48.952;8.970;2023-04-04T13:17:41;9.20;28.80
16066;DHT22;8137;48.952;8.970;2023-04-04T13:20:08;9.40;30.20
16066;DHT22;8137;48.952;8.970;2023-04-04T13:22:37;9.60;28.50
16066;DHT22;8137;48.952;8.970;2023-04-04T13:25:04;9.50;28.20
16066;DHT22;8137;48.952;8.970;2023-04-04T13:27:30;9.50;27.80
16066;DHT22;8137;48.952;8.970;2023-04-04T13:29:56;9.20;26.30
16066;DHT22;8137;48.952;8.970;2023-04-04T13:32:21;9.40;27.80
16066;DHT22;8137;48.952;8.970;2023-04-04T13:34:47;9.60;28.40
16066;DHT22;8137;48.952;8.970;2023-04-04T13:37:13;9.60;27.50
16066;DHT22;8137;48.952;8.970;2023-04-04T13:39:38;9.40;26.60
16066;DHT22;8137;48.952;8.970;2023-04-04T13:42:04;9.30;26.70
16066;DHT22;8137;48.952;8.970;2023-04-04T13:44:30;9.40;26.60
16066;DHT22;8137;48.952;8.970;2023-04-04T13:46:55;9.40;25.80
16066;DHT22;8137;48.952;8.970;2023-04-04T13:49:21;9.40;25.10
16066;DHT22;8137;48.952;8.970;2023-04-04T13:51:46;9.30;24.80
16066;DHT22;8137;48.952;8.970;2023-04-04T13:54:12;9.00;25.90
16066;DHT22;8137;48.952;8.970;2023-04-04T13:56:39;8.90;25.90
16066;DHT22;8137;48.952;8.970;2023-04-04T13:59:04;8.90;27.10
16066;DHT22;8137;48.952;8.970;2023-04-04T14:01:30;8.90;25.40
16066;DHT22;8137;48.952;8.970;2023-04-04T14:03:56;8.70;26.40
16066;DHT22;8137;48.952;8.970;2023-04-04T14:06:21;9.00;27.30
16066;DHT22;8137;48.952;8.970;2023-04-04T14:08:47;9.30;28.10
16066;DHT22;8137;48.952;8.970;2023-04-04T14:11:13;9.50;27.00
16066;DHT22;8137;48.952;8.970;2023-04-04T14:13:39;9.60;25.50
16066;DHT22;8137;48.952;8.970;2023-04-04T14:16:06;9.40;25.40
16066;DHT22;8137;48.952;8.970;2023-04-04T14:18:32;9.20;25.20
16066;DHT22;8137;48.952;8.970;2023-04-04T14:21:02;9.40;24.70
16066;DHT22;8137;48.952;8.970;2023-04-04T14:23:28;9.40;24.50
16066;DHT22;8137;48.952;8.970;2023-04-04T14:25:57;9.40;24.20
16066;DHT22;8137;48.952;8.970;2023-04-04T14:28:22;9.40;26.60
16066;DHT22;8137;48.952;8.970;2023-04-04T14:30:51;9.50;25.60
16066;DHT22;8137;48.952;8.970;2023-04-04T14:33:17;9.40;26.10
16066;DHT22;8137;48.952;8.970;2023-04-04T14:35:42;9.30;25.70
16066;DHT22;8137;48.952;8.970;2023-04-04T14:38:08;9.20;27.50
16066;DHT22;8137;48.952;8.970;2023-04-04T14:40:34;9.40;27.70
16066;DHT22;8137;48.952;8.970;2023-04-04T14:42:59;9.20;25.70
16066;DHT22;8137;48.952;8.970;2023-04-04T14:45:25;9.20;27.70
16066;DHT22;8137;48.952;8.970;2023-04-04T14:47:52;9.30;26.20
16066;DHT22;8137;48.952;8.970;2023-04-04T14:50:18;9.40;27.20
16066;DHT22;8137;48.952;8.970;2023-04-04T14:52:44;9.50;26.40
16066;DHT22;8137;48.952;8.970;2023-04-04T14:55:09;9.50;26.20
16066;DHT22;8137;48.952;8.970;2023-04-04T14:57:35;9.50;24.40
16066;DHT22;8137;48.952;8.970;2023-04-04T15:00:02;9.20;24.70
16066;DHT22;8137;48.952;8.970;2023-04-04T15:02:28;9.30;24.80
16066;DHT22;8137;48.952;8.970;2023-04-04T15:04:54;9.40;26.80
16066;DHT22;8137;48.952;8.970;2023-04-04T15:07:19;9.40;25.60
16066;DHT22;8137;48.952;8.970;2023-04-04T15:09:48;9.10;25.20
16066;DHT22;8137;48.952;8.970;2023-04-04T15:12:14;9.10;26.20
16066;DHT22;8137;48.952;8.970;2023-04-04T15:14:40;9.20;26.30
16066;DHT22;8137;48.952;8.970;2023-04-04T15:17:05;9.20;26.00
16066;DHT22;8137;48.952;8.970;2023-04-04T15:19:31;9.10;25.00
16066;DHT22;8137;48.952;8.970;2023-04-04T15:21:57;9.10;24.20
16066;DHT22;8137;48.952;8.970;2023-04-04T15:24:23;9.00;24.70
16066;DHT22;8137;48.952;8.970;2023-04-04T15:26:48;9.10;25.70
16066;DHT22;8137;48.952;8.970;2023-04-04T15:29:14;9.10;26.00
16066;DHT22;8137;48.952;8.970;2023-04-04T15:31:40;9.10;24.60
16066;DHT22;8137;48.952;8.970;2023-04-04T15:34:06;9.10;24.10
16066;DHT22;8137;48.952;8.970;2023-04-04T15:36:31;8.80;25.30
16066;DHT22;8137;48.952;8.970;2023-04-04T15:38:58;8.80;24.70
16066;DHT22;8137;48.952;8.970;2023-04-04T15:41:24;8.80;26.10
16066;DHT22;8137;48.952;8.970;2023-04-04T15:43:49;9.00;24.80
16066;DHT22;8137;48.952;8.970;2023-04-04T15:46:15;9.00;24.70
16066;DHT22;8137;48.952;8.970;2023-04-04T15:48:41;9.10;24.50
16066;DHT22;8137;48.952;8.970;2023-04-04T15:51:06;9.00;24.60
16066;DHT22;8137;48.952;8.970;2023-04-04T15:53:32;8.90;25.10
16066;DHT22;8137;48.952;8.970;2023-04-04T15:55:58;8.80;25.40
16066;DHT22;8137;48.952;8.970;2023-04-04T15:58:25;8.70;25.70
16066;DHT22;8137;48.952;8.970;2023-04-04T16:00:51;8.70;25.30
16066;DHT22;8137;48.952;8.970;2023-04-04T16:03:17;8.70;27.60
16066;DHT22;8137;48.952;8.970;2023-04-04T16:05:42;8.70;25.90
16066;DHT22;8137;48.952;8.970;2023-04-04T16:08:08;8.70;25.60
16066;DHT22;8137;48.952;8.970;2023-04-04T16:10:34;8.70;25.80
16066;DHT22;8137;48.952;8.970;2023-04-04T16:12:59;8.70;25.80
16066;DHT22;8137;48.952;8.970;2023-04-04T16:15:25;8.70;27.00